createdAt,value
2023-04-15T00:00:58.301Z,66.25
2023-04-15T00:03:25.396Z,66.17
2023-04-15T00:05:52.080Z,66.10
2023-04-15T00:08:18.581Z,66.22
2023-04-15T00:10:46.476Z,66.81
2023-04-15T00:13:13.302Z,66.49
2023-04-15T00:15:39.811Z,67.23
2023-04-15T00:18:08.007Z,66.63
2023-04-15T00:20:35.312Z,67.04
2023-04-15T00:23:02.576Z,66.99
2023-04-15T00:25:29.308Z,66.90
2023-04-15T00:27:55.856Z,67.22
2023-04-15T00:30:23.990Z,67.26
2023-04-15T00:32:50.600Z,67.79
2023-04-15T00:35:21.599Z,68.04
2023-04-15T00:37:48.282Z,68.50
2023-04-15T00:40:18.798Z,68.64
2023-04-15T00:42:45.536Z,69.41
2023-04-15T00:45:12.862Z,69.26
2023-04-15T00:47:41.717Z,69.12
2023-04-15T00:50:08.813Z,69.99
2023-04-15T00:52:35.320Z,70.21
2023-04-15T00:55:02.470Z,70.90
2023-04-15T00:57:30.133Z,71.07
2023-04-15T00:59:57.156Z,71.05
2023-04-15T01:02:24.125Z,71.65
2023-04-15T01:04:51.275Z,72.05
2023-04-15T01:07:18.041Z,72.13
2023-04-15T01:09:45.659Z,72.25
2023-04-15T01:12:14.063Z,72.97
2023-04-15T01:14:41.081Z,73.20
2023-04-15T01:17:07.617Z,74.46
2023-04-15T01:19:34.580Z,74.36
2023-04-15T01:22:03.216Z,74.07
2023-04-15T01:24:31.609Z,73.50
2023-04-15T01:26:58.499Z,73.42
2023-04-15T01:29:25.317Z,74.01
2023-04-15T01:31:53.595Z,73.58
2023-04-15T01:34:21.055Z,73.48
2023-04-15T01:36:48.039Z,73.46
2023-04-15T01:39:15.134Z,73.80
2023-04-15T01:41:42.385Z,73.52
2023-04-15T01:44:08.973Z,73.80
2023-04-15T01:46:37.046Z,74.14
2023-04-15T01:49:03.552Z,74.52
2023-04-15T01:51:32.159Z,74.42
2023-04-15T01:53:58.885Z,74.15
2023-04-15T01:56:25.529Z,74.53
2023-04-15T01:58:52.781Z,74.73
2023-04-15T02:01:19.906Z,75.15
2023-04-15T02:03:47.732Z,75.08
2023-04-15T02:06:15.303Z,75.45
2023-04-15T02:08:41.864Z,75.72
2023-04-15T02:11:08.422Z,75.78
2023-04-15T02:13:35.039Z,75.87
2023-04-15T02:16:01.824Z,76.58
2023-04-15T02:18:28.586Z,76.29
2023-04-15T02:20:57.208Z,77.08
2023-04-15T02:23:23.741Z,77.25
2023-04-15T02:25:53.822Z,76.80
2023-04-15T02:28:21.420Z,77.81
2023-04-15T02:30:50.890Z,78.12
2023-04-15T02:33:17.497Z,78.11
2023-04-15T02:35:45.291Z,78.66
2023-04-15T02:38:12.205Z,78.70
2023-04-15T02:40:38.734Z,79.30
2023-04-15T02:43:07.312Z,79.09
2023-04-15T02:45:34.619Z,79.15
2023-04-15T02:48:06.452Z,78.81
2023-04-15T02:50:33.317Z,79.21
2023-04-15T02:53:01.201Z,79.85
2023-04-15T02:55:28.606Z,79.93
2023-04-15T02:57:55.522Z,80.42
2023-04-15T03:00:22.456Z,80.61
2023-04-15T03:02:52.437Z,80.43
2023-04-15T03:05:19.107Z,80.96
2023-04-15T03:07:51.215Z,81.15
2023-04-15T03:10:18.522Z,81.53
2023-04-15T03:12:46.440Z,81.60
2023-04-15T03:15:17.492Z,81.52
2023-04-15T03:17:49.416Z,82.00
2023-04-15T03:20:16.963Z,82.23
2023-04-15T03:22:43.696Z,82.40
2023-04-15T03:25:10.623Z,82.64
2023-04-15T03:27:38.655Z,83.24
2023-04-15T03:30:06.652Z,83.12
2023-04-15T03:32:35.975Z,83.42
2023-04-15T03:35:02.605Z,83.34
2023-04-15T03:37:29.118Z,83.89
2023-04-15T03:39:55.574Z,84.29
2023-04-15T03:42:22.300Z,83.50
2023-04-15T03:44:48.773Z,83.85
2023-04-15T03:47:15.565Z,84.03
2023-04-15T03:49:42.088Z,84.17
2023-04-15T03:52:08.580Z,83.86
2023-04-15T03:54:35.068Z,84.31
2023-04-15T03:57:01.718Z,84.21
2023-04-15T03:59:28.242Z,84.73
2023-04-15T04:01:54.798Z,85.10
2023-04-15T04:04:21.611Z,84.79
2023-04-15T04:06:48.160Z,85.40
2023-04-15T04:09:14.622Z,85.29
2023-04-15T04:11:41.071Z,85.04
2023-04-15T04:14:07.627Z,85.36
2023-04-15T04:16:34.113Z,86.00
2023-04-15T04:19:00.787Z,85.60
2023-04-15T04:21:28.087Z,86.13
2023-04-15T04:23:54.842Z,86.46
2023-04-15T04:26:22.297Z,86.55
2023-04-15T04:28:48.762Z,86.23
2023-04-15T04:31:15.424Z,86.61
2023-04-15T04:33:41.918Z,86.55
2023-04-15T04:36:08.447Z,86.46
2023-04-15T04:38:34.954Z,86.89
2023-04-15T04:41:01.410Z,86.58
2023-04-15T04:43:27.895Z,86.66
2023-04-15T04:45:54.476Z,86.39
2023-04-15T04:48:21.254Z,86.47
2023-04-15T04:50:47.981Z,87.36
2023-04-15T04:53:15.061Z,87.42
2023-04-15T04:55:41.542Z,87.26
2023-04-15T04:58:08.052Z,87.75
2023-04-15T05:00:34.809Z,88.04
2023-04-15T05:03:01.645Z,88.23
2023-04-15T05:05:28.416Z,88.04
2023-04-15T05:07:54.925Z,88.41
2023-04-15T05:10:21.578Z,88.64
2023-04-15T05:12:48.121Z,88.48
2023-04-15T05:15:14.561Z,88.40
2023-04-15T05:17:41.002Z,88.69
2023-04-15T05:20:08.269Z,88.83
2023-04-15T05:22:34.854Z,89.11
2023-04-15T05:25:01.319Z,89.22
2023-04-15T05:27:27.792Z,89.40
2023-04-15T05:29:54.254Z,89.63
2023-04-15T05:32:20.740Z,90.04
2023-04-15T05:34:47.361Z,90.30
2023-04-15T05:37:14.033Z,90.18
2023-04-15T05:39:40.452Z,90.50
2023-04-15T05:42:06.992Z,90.85
2023-04-15T05:44:33.642Z,87.95
2023-04-15T05:47:00.172Z,84.20
2023-04-15T05:49:27.551Z,82.58
2023-04-15T05:51:54.064Z,82.32
2023-04-15T05:54:21.945Z,82.08
2023-04-15T05:56:48.818Z,82.70
2023-04-15T05:59:15.633Z,83.57
2023-04-15T06:01:42.064Z,84.08
2023-04-15T06:04:09.783Z,84.48
2023-04-15T06:06:36.395Z,84.45
2023-04-15T06:09:03.042Z,85.00
2023-04-15T06:11:29.563Z,84.97
2023-04-15T06:13:56.581Z,84.56
2023-04-15T06:16:23.379Z,84.14
2023-04-15T06:18:49.885Z,83.88
2023-04-15T06:21:16.316Z,83.66
2023-04-15T06:23:42.854Z,82.99
2023-04-15T06:26:09.387Z,82.03
2023-04-15T06:28:36.071Z,81.24
2023-04-15T06:31:03.025Z,81.45
2023-04-15T06:33:29.498Z,80.48
2023-04-15T06:35:55.898Z,80.97
2023-04-15T06:38:22.390Z,81.54
2023-04-15T06:40:48.792Z,81.41
2023-04-15T06:43:15.367Z,81.49
2023-04-15T06:45:41.900Z,81.23
2023-04-15T06:48:08.496Z,81.11
2023-04-15T06:50:35.676Z,81.21
2023-04-15T06:53:03.065Z,81.13
2023-04-15T06:55:29.783Z,81.48
2023-04-15T06:57:56.405Z,81.47
2023-04-15T07:00:22.964Z,81.46
2023-04-15T07:02:49.445Z,81.09
2023-04-15T07:05:16.178Z,80.96
2023-04-15T07:07:42.792Z,80.39
2023-04-15T07:10:10.048Z,80.07
2023-04-15T07:12:36.657Z,79.49
2023-04-15T07:15:03.768Z,78.70
2023-04-15T07:17:30.276Z,78.41
2023-04-15T07:19:56.865Z,78.13
2023-04-15T07:22:23.448Z,78.00
2023-04-15T07:24:49.906Z,78.30
2023-04-15T07:27:17.899Z,77.66
2023-04-15T07:29:44.343Z,77.71
2023-04-15T07:32:10.894Z,77.43
2023-04-15T07:34:38.058Z,76.36
2023-04-15T07:37:04.651Z,76.29
2023-04-15T07:39:31.177Z,75.00
2023-04-15T07:41:58.976Z,74.15
2023-04-15T07:44:26.845Z,72.78
2023-04-15T07:46:53.985Z,72.79
2023-04-15T07:49:21.446Z,71.94
2023-04-15T07:51:49.116Z,70.08
2023-04-15T07:54:16.254Z,67.55
2023-04-15T07:56:42.989Z,68.29
2023-04-15T07:59:10.031Z,67.58
2023-04-15T08:01:36.741Z,68.01
2023-04-15T08:04:03.763Z,66.18
2023-04-15T08:06:30.803Z,65.42
2023-04-15T08:08:57.542Z,64.77
2023-04-15T08:11:24.485Z,63.87
2023-04-15T08:13:52.076Z,63.94
2023-04-15T08:16:19.054Z,63.01
2023-04-15T08:18:47.282Z,62.59
2023-04-15T08:21:14.068Z,61.54
2023-04-15T08:23:40.893Z,61.17
2023-04-15T08:26:08.613Z,60.84
2023-04-15T08:28:37.665Z,61.22
2023-04-15T08:31:04.217Z,60.97
2023-04-15T08:33:31.119Z,61.73
2023-04-15T08:35:57.784Z,60.24
2023-04-15T08:38:24.238Z,60.10
2023-04-15T08:40:50.837Z,58.91
2023-04-15T08:43:28.512Z,59.89
2023-04-15T08:45:55.823Z,58.62
2023-04-15T08:48:24.531Z,58.60
2023-04-15T08:50:51.873Z,59.16
2023-04-15T08:53:18.735Z,58.57
2023-04-15T08:55:46.537Z,59.53
2023-04-15T08:58:14.180Z,59.83
2023-04-15T09:00:42.051Z,59.03
2023-04-15T09:03:09.747Z,59.16
2023-04-15T09:05:37.495Z,58.99
2023-04-15T09:08:05.577Z,58.67
2023-04-15T09:10:33.684Z,58.65
2023-04-15T09:13:02.016Z,58.79
2023-04-15T09:15:29.784Z,57.86
2023-04-15T09:17:56.889Z,57.40
2023-04-15T09:20:23.897Z,57.29
2023-04-15T09:22:51.987Z,57.51
2023-04-15T09:25:21.404Z,57.22
2023-04-15T09:27:51.675Z,57.15
2023-04-15T09:30:18.328Z,57.23
2023-04-15T09:32:56.456Z,57.51
2023-04-15T09:35:24.222Z,56.70
2023-04-15T09:37:51.382Z,56.96
2023-04-15T09:40:33.801Z,56.70
2023-04-15T09:43:01.933Z,56.67
2023-04-15T09:45:29.862Z,56.46
2023-04-15T09:47:59.165Z,57.14
2023-04-15T09:50:29.641Z,57.32
2023-04-15T09:52:56.490Z,56.44
2023-04-15T09:55:23.212Z,56.24
2023-04-15T09:57:49.781Z,55.95
2023-04-15T10:00:16.451Z,55.62
2023-04-15T10:02:43.697Z,55.13
2023-04-15T10:05:12.023Z,55.17
2023-04-15T10:07:41.177Z,55.63
2023-04-15T10:10:07.964Z,56.55
2023-04-15T10:12:37.391Z,55.41
2023-04-15T10:15:05.557Z,55.66
2023-04-15T10:17:35.254Z,53.72
2023-04-15T10:20:04.726Z,54.66
2023-04-15T10:22:32.636Z,53.61
2023-04-15T10:25:02.527Z,53.95
2023-04-15T10:27:29.405Z,54.34
2023-04-15T10:29:56.917Z,53.57
2023-04-15T10:32:25.684Z,55.17
2023-04-15T10:34:54.634Z,54.33
2023-04-15T10:37:41.710Z,53.63
2023-04-15T10:40:31.723Z,54.11
2023-04-15T10:43:00.254Z,53.80
2023-04-15T10:45:28.489Z,53.51
2023-04-15T10:47:57.230Z,53.94
2023-04-15T10:50:26.627Z,53.87
2023-04-15T10:52:53.144Z,53.94
2023-04-15T10:55:22.527Z,54.50
2023-04-15T10:57:59.677Z,54.09
2023-04-15T11:00:28.897Z,53.20
2023-04-15T11:02:58.251Z,53.91
2023-04-15T11:05:54.527Z,53.56
2023-04-15T11:08:54.479Z,53.49
2023-04-15T11:11:21.209Z,52.25
2023-04-15T11:13:50.206Z,51.12
2023-04-15T11:16:17.010Z,51.87
2023-04-15T11:18:53.931Z,52.70
2023-04-15T11:21:25.738Z,51.04
2023-04-15T11:23:52.602Z,50.51
2023-04-15T11:26:19.160Z,50.96
2023-04-15T11:28:46.259Z,51.23
2023-04-15T11:31:18.252Z,50.51
2023-04-15T11:33:46.061Z,51.82
2023-04-15T11:36:12.698Z,52.53
2023-04-15T11:38:42.725Z,54.06
2023-04-15T11:41:09.280Z,53.66
2023-04-15T11:43:35.865Z,53.27
2023-04-15T11:46:03.216Z,53.18
2023-04-15T11:48:34.329Z,52.10
2023-04-15T11:51:06.464Z,52.28
2023-04-15T11:53:46.740Z,53.54
2023-04-15T11:56:21.505Z,53.38
2023-04-15T11:58:51.661Z,53.81
2023-04-15T12:01:18.617Z,53.23
2023-04-15T12:03:47.131Z,52.48
2023-04-15T12:06:21.835Z,53.05
2023-04-15T12:09:00.474Z,53.17
2023-04-15T12:11:29.459Z,53.38
2023-04-15T12:13:58.372Z,52.32
2023-04-15T12:16:27.866Z,53.30
2023-04-15T12:18:56.911Z,52.37
2023-04-15T12:21:25.744Z,52.62
2023-04-15T12:23:54.771Z,52.46
2023-04-15T12:26:35.027Z,52.97
2023-04-15T12:29:02.252Z,53.15
2023-04-15T12:31:29.092Z,54.13
2023-04-15T12:33:56.735Z,54.24
2023-04-15T12:36:23.699Z,54.57
2023-04-15T12:38:50.457Z,53.12
2023-04-15T12:41:16.934Z,54.01
2023-04-15T12:43:47.031Z,53.62
2023-04-15T12:46:14.040Z,55.27
2023-04-15T12:48:40.588Z,55.28
2023-04-15T12:51:07.073Z,54.75
2023-04-15T12:53:33.609Z,54.54
2023-04-15T12:56:00.133Z,54.97
2023-04-15T12:58:27.552Z,54.80
2023-04-15T13:00:55.419Z,54.29
2023-04-15T13:03:22.009Z,53.58
2023-04-15T13:05:48.571Z,53.79
2023-04-15T13:08:15.589Z,54.32
2023-04-15T13:10:42.485Z,54.38
2023-04-15T13:13:09.133Z,55.26
2023-04-15T13:15:35.914Z,55.71
2023-04-15T13:18:02.964Z,56.08
2023-04-15T13:20:29.533Z,56.76
2023-04-15T13:22:56.211Z,57.65
2023-04-15T13:25:22.656Z,57.86
2023-04-15T13:27:49.886Z,58.13
2023-04-15T13:30:16.480Z,57.95
2023-04-15T13:32:43.096Z,58.74
2023-04-15T13:35:09.679Z,59.06
2023-04-15T13:37:36.444Z,58.68
2023-04-15T13:40:03.387Z,59.77
2023-04-15T13:42:29.871Z,59.40
2023-04-15T13:44:56.474Z,59.24
2023-04-15T13:47:22.998Z,59.94
2023-04-15T13:49:49.511Z,59.75
2023-04-15T13:52:16.031Z,59.65
2023-04-15T13:54:42.512Z,60.56
2023-04-15T13:57:09.164Z,60.27
2023-04-15T13:59:35.834Z,61.26
2023-04-15T14:02:02.805Z,61.17
2023-04-15T14:04:30.487Z,60.67
2023-04-15T14:06:57.047Z,59.26
2023-04-15T14:09:26.260Z,59.37
2023-04-15T14:11:53.407Z,59.56
2023-04-15T14:14:22.898Z,60.47
2023-04-15T14:16:49.401Z,60.75
2023-04-15T14:19:16.191Z,61.20
2023-04-15T14:21:42.651Z,61.13
2023-04-15T14:24:09.741Z,62.92
2023-04-15T14:26:36.184Z,63.45
2023-04-15T14:29:02.837Z,64.13
2023-04-15T14:31:29.607Z,64.62
2023-04-15T14:33:56.161Z,65.18
2023-04-15T14:36:22.788Z,64.87
2023-04-15T14:38:49.326Z,64.37
2023-04-15T14:41:16.117Z,64.84
2023-04-15T14:43:42.648Z,64.36
2023-04-15T14:46:10.563Z,63.95
2023-04-15T14:48:37.374Z,63.38
2023-04-15T14:51:03.962Z,62.99
2023-04-15T14:53:30.486Z,63.57
2023-04-15T14:55:56.998Z,63.04
2023-04-15T14:58:23.474Z,63.52
2023-04-15T15:00:50.052Z,64.65
2023-04-15T15:03:16.666Z,65.15
2023-04-15T15:05:46.360Z,65.92
2023-04-15T15:08:13.776Z,65.60
2023-04-15T15:10:49.091Z,65.08
2023-04-15T15:13:17.045Z,64.82
2023-04-15T15:15:43.765Z,65.50
2023-04-15T15:18:10.710Z,65.06
2023-04-15T15:20:37.267Z,65.61
2023-04-15T15:23:03.762Z,66.50
2023-04-15T15:25:30.363Z,66.45
2023-04-15T15:27:57.841Z,66.21
2023-04-15T15:30:24.361Z,66.53
2023-04-15T15:32:51.262Z,66.75
2023-04-15T15:35:17.874Z,67.09
2023-04-15T15:37:45.866Z,67.46
2023-04-15T15:40:12.747Z,68.08
2023-04-15T15:42:39.316Z,68.10
2023-04-15T15:45:06.407Z,68.91
2023-04-15T15:47:33.198Z,69.12
2023-04-15T15:50:01.062Z,69.64
2023-04-15T15:52:27.765Z,69.60
2023-04-15T15:54:54.226Z,69.52
2023-04-15T15:57:20.785Z,69.85
2023-04-15T15:59:47.230Z,70.40
2023-04-15T16:02:14.346Z,70.64
2023-04-15T16:04:41.633Z,71.09
2023-04-15T16:07:08.235Z,71.42
2023-04-15T16:09:35.002Z,71.51
2023-04-15T16:12:01.988Z,71.59
2023-04-15T16:14:28.640Z,71.60
2023-04-15T16:16:55.302Z,72.12
2023-04-15T16:19:21.854Z,72.49
2023-04-15T16:21:48.770Z,72.33
2023-04-15T16:24:15.247Z,72.37
2023-04-15T16:26:42.128Z,72.55
2023-04-15T16:29:08.734Z,73.09
2023-04-15T16:31:35.957Z,73.08
2023-04-15T16:34:02.659Z,73.16
2023-04-15T16:36:29.171Z,73.19
2023-04-15T16:38:55.856Z,73.01
2023-04-15T16:41:22.335Z,72.72
2023-04-15T16:43:48.915Z,72.76
2023-04-15T16:46:15.608Z,73.54
2023-04-15T16:48:42.117Z,73.91
2023-04-15T16:51:08.683Z,73.58
2023-04-15T16:53:35.344Z,74.17
2023-04-15T16:56:01.829Z,74.42
2023-04-15T16:58:28.828Z,74.59
2023-04-15T17:00:55.632Z,74.64
2023-04-15T17:03:22.321Z,74.80
2023-04-15T17:05:48.895Z,75.04
2023-04-15T17:08:15.404Z,74.85
2023-04-15T17:10:41.911Z,75.04
2023-04-15T17:13:08.490Z,74.84
2023-04-15T17:15:35.314Z,75.09
2023-04-15T17:18:02.393Z,75.30
2023-04-15T17:20:29.984Z,75.50
2023-04-15T17:22:56.877Z,75.69
2023-04-15T17:25:23.477Z,75.42
2023-04-15T17:27:50.000Z,75.66
2023-04-15T17:30:16.616Z,75.78
2023-04-15T17:32:43.208Z,76.15
2023-04-15T17:35:10.080Z,76.55
2023-04-15T17:37:37.288Z,76.82
2023-04-15T17:40:05.866Z,77.51
2023-04-15T17:42:33.850Z,78.00
2023-04-15T17:45:00.318Z,77.79
2023-04-15T17:47:27.773Z,77.79
2023-04-15T17:49:54.278Z,77.71
2023-04-15T17:52:20.860Z,77.74
2023-04-15T17:54:47.395Z,77.71
2023-04-15T17:57:16.094Z,77.98
2023-04-15T17:59:47.367Z,78.21
2023-04-15T18:02:14.885Z,78.47
2023-04-15T18:04:41.668Z,78.48
2023-04-15T18:07:08.730Z,78.83
2023-04-15T18:09:36.279Z,78.77
2023-04-15T18:12:04.428Z,78.94
2023-04-15T18:14:34.577Z,79.00
2023-04-15T18:17:02.680Z,78.91
2023-04-15T18:19:30.556Z,78.26
2023-04-15T18:21:57.943Z,78.47
2023-04-15T18:24:24.389Z,78.22
2023-04-15T18:26:52.207Z,78.12
2023-04-15T18:29:18.695Z,78.28
2023-04-15T18:31:45.192Z,78.53
2023-04-15T18:34:11.718Z,78.75
2023-04-15T18:36:38.196Z,79.15
2023-04-15T18:39:05.256Z,79.34
2023-04-15T18:41:31.977Z,78.92
2023-04-15T18:43:58.451Z,79.27
2023-04-15T18:46:25.072Z,79.46
2023-04-15T18:48:51.523Z,79.92
2023-04-15T18:51:17.972Z,80.30
2023-04-15T18:53:44.573Z,80.90
2023-04-15T18:56:11.426Z,81.45
2023-04-15T18:59:09.004Z,81.79
2023-04-15T19:01:24.524Z,82.71
2023-04-15T19:03:51.222Z,82.88
2023-04-15T19:06:17.737Z,83.62
2023-04-15T19:08:44.215Z,84.04
2023-04-15T19:11:10.923Z,83.88
2023-04-15T19:13:37.374Z,84.81
2023-04-15T19:16:04.022Z,84.40
2023-04-15T19:18:30.626Z,84.53
2023-04-15T19:20:57.380Z,84.68
2023-04-15T19:23:23.925Z,84.90
2023-04-15T19:25:50.478Z,85.19
2023-04-15T19:28:16.930Z,85.97
2023-04-15T19:30:43.363Z,85.99
2023-04-15T19:33:09.785Z,86.33
2023-04-15T19:35:38.181Z,86.54
2023-04-15T19:38:04.910Z,87.26
2023-04-15T19:40:31.377Z,87.38
2023-04-15T19:43:00.109Z,87.58
2023-04-15T19:45:26.600Z,87.84
2023-04-15T19:47:53.813Z,87.98
2023-04-15T19:50:24.554Z,88.27
2023-04-15T19:52:51.067Z,88.47
2023-04-15T19:55:17.700Z,88.83
2023-04-15T19:57:44.180Z,88.99
2023-04-15T20:00:11.266Z,88.52
2023-04-15T20:02:37.976Z,89.18
2023-04-15T20:05:04.902Z,88.92
2023-04-15T20:07:31.285Z,89.37
2023-04-15T20:09:57.722Z,89.39
2023-04-15T20:12:50.314Z,88.88
2023-04-15T20:15:10.938Z,88.65
2023-04-15T20:17:37.602Z,88.63
2023-04-15T20:20:05.212Z,89.02
2023-04-15T20:22:32.353Z,89.23
2023-04-15T20:24:59.919Z,89.19
2023-04-15T20:27:26.381Z,89.54
2023-04-15T20:29:52.880Z,89.17
2023-04-15T20:32:19.458Z,89.05
2023-04-15T20:34:46.328Z,89.06
2023-04-15T20:37:13.131Z,89.74
2023-04-15T20:39:40.615Z,89.40
2023-04-15T20:42:10.236Z,89.50
2023-04-15T20:44:38.641Z,90.26
2023-04-15T20:47:06.307Z,90.82
2023-04-15T20:49:37.076Z,90.95
2023-04-15T20:52:05.573Z,91.01
2023-04-15T20:54:32.169Z,90.98
2023-04-15T20:56:58.740Z,91.34
2023-04-15T20:59:25.500Z,92.02
2023-04-15T21:01:52.061Z,92.14
2023-04-15T21:04:18.929Z,92.02
2023-04-15T21:06:45.457Z,92.09
2023-04-15T21:09:11.958Z,92.66
2023-04-15T21:11:57.283Z,92.50
2023-04-15T21:14:24.862Z,93.07
2023-04-15T21:16:51.317Z,93.18
2023-04-15T21:19:17.768Z,93.47
2023-04-15T21:21:44.193Z,93.90
2023-04-15T21:24:10.685Z,94.01
2023-04-15T21:26:37.204Z,94.63
2023-04-15T21:29:03.925Z,94.75
2023-04-15T21:31:30.689Z,95.21
2023-04-15T21:33:57.238Z,95.65
2023-04-15T21:36:23.688Z,96.09
2023-04-15T21:38:50.298Z,96.03
2023-04-15T21:41:16.876Z,96.22
2023-04-15T21:43:43.342Z,96.28
2023-04-15T21:46:23.124Z,96.49
2023-04-15T21:48:52.422Z,96.65
2023-04-15T21:51:19.010Z,96.61
2023-04-15T21:53:45.538Z,97.20
2023-04-15T21:56:11.936Z,97.26
2023-04-15T21:58:38.394Z,97.62
2023-04-15T22:01:05.030Z,97.96
2023-04-15T22:03:34.069Z,97.98
2023-04-15T22:06:04.003Z,98.05
2023-04-15T22:08:36.089Z,98.32
2023-04-15T22:11:20.771Z,98.33
2023-04-15T22:13:47.174Z,98.66
2023-04-15T22:16:13.668Z,98.94
2023-04-15T22:18:40.230Z,99.10
2023-04-15T22:21:07.817Z,99.31
2023-04-15T22:23:34.306Z,99.52
2023-04-15T22:26:00.877Z,99.65
2023-04-15T22:28:27.503Z,99.95
2023-04-15T22:30:54.523Z,100.00
2023-04-15T22:33:21.103Z,100.00
2023-04-15T22:35:47.590Z,100.00
2023-04-15T22:38:14.114Z,100.00
2023-04-15T22:40:40.543Z,100.00
2023-04-15T22:43:06.939Z,100.00
2023-04-15T22:45:33.411Z,100.00
2023-04-15T22:47:59.838Z,100.00
2023-04-15T22:50:26.524Z,100.00
2023-04-15T22:52:53.050Z,100.00
2023-04-15T22:55:19.546Z,100.00
2023-04-15T22:57:45.980Z,100.00
2023-04-15T23:00:12.803Z,100.00
2023-04-15T23:02:39.298Z,100.00
2023-04-15T23:05:12.736Z,100.00
2023-04-15T23:07:39.925Z,100.00
2023-04-15T23:10:07.878Z,100.00
2023-04-15T23:12:34.420Z,100.00
2023-04-15T23:15:00.892Z,100.00
2023-04-15T23:17:28.416Z,100.00
2023-04-15T23:19:54.910Z,100.00
2023-04-15T23:22:21.399Z,100.00
2023-04-15T23:24:47.808Z,100.00
2023-04-15T23:27:14.214Z,100.00
2023-04-15T23:29:40.755Z,100.00
2023-04-15T23:32:07.248Z,100.00
2023-04-15T23:34:33.710Z,100.00
2023-04-15T23:37:00.353Z,100.00
2023-04-15T23:39:27.152Z,100.00
2023-04-15T23:41:53.743Z,100.00
2023-04-15T23:44:20.314Z,100.00
2023-04-15T23:46:46.964Z,100.00
2023-04-15T23:49:13.529Z,100.00
2023-04-15T23:51:40.042Z,100.00
2023-04-15T23:54:06.623Z,100.00
2023-04-15T23:56:33.141Z,100.00
2023-04-15T23:58:59.605Z,100.00
